createdAt,value
2018-12-16T00:00:59.725Z,-0.54
2018-12-16T00:06:04.329Z,-0.56
2018-12-16T00:11:06.867Z,-0.60
2018-12-16T00:16:09.050Z,-0.58
2018-12-16T00:26:20.448Z,-0.60
2018-12-16T00:31:22.633Z,-0.56
2018-12-16T00:36:25.214Z,-0.61
2018-12-16T00:41:27.377Z,-0.60
2018-12-16T00:46:29.678Z,-0.64
2018-12-16T00:51:31.837Z,-0.61
2018-12-16T00:56:34.012Z,-0.57
2018-12-16T01:01:36.759Z,-0.59
2018-12-16T01:06:39.298Z,-0.54
2018-12-16T01:11:42.121Z,-0.52
2018-12-16T01:16:44.311Z,-0.57
2018-12-16T01:21:46.354Z,-0.53
2018-12-16T01:26:53.453Z,-0.56
2018-12-16T01:31:55.560Z,-0.45
2018-12-16T01:36:57.898Z,-0.51
2018-12-16T01:42:00.077Z,-0.50
2018-12-16T01:47:02.546Z,-0.50
2018-12-16T01:52:04.706Z,-0.57
2018-12-16T01:57:07.043Z,-0.51
2018-12-16T02:02:09.221Z,-0.49
2018-12-16T02:07:11.348Z,-0.57
2018-12-16T02:12:13.650Z,-0.45
2018-12-16T02:17:15.830Z,-0.50
2018-12-16T02:22:18.012Z,-0.52
2018-12-16T02:27:20.274Z,-0.48
2018-12-16T02:32:22.468Z,-0.55
2018-12-16T02:37:24.658Z,-0.52
2018-12-16T02:42:26.850Z,-0.54
2018-12-16T02:47:28.911Z,-0.56
2018-12-16T02:52:30.982Z,-0.57
2018-12-16T02:57:33.157Z,-0.52
2018-12-16T03:02:35.453Z,-0.55
2018-12-16T03:07:38.444Z,-0.54
2018-12-16T03:12:40.543Z,-0.44
2018-12-16T03:17:42.811Z,-0.51
2018-12-16T03:22:45.683Z,-0.55
2018-12-16T03:27:47.792Z,-0.55
2018-12-16T03:32:49.973Z,-0.55
2018-12-16T03:37:52.029Z,-0.50
2018-12-16T03:42:54.346Z,-0.53
2018-12-16T03:47:56.527Z,-0.49
2018-12-16T03:52:58.576Z,-0.53
2018-12-16T03:58:00.786Z,-0.55
2018-12-16T04:03:03.070Z,-0.52
2018-12-16T04:08:05.534Z,-0.53
2018-12-16T04:13:07.741Z,-0.52
2018-12-16T04:18:10.020Z,-0.53
2018-12-16T04:23:12.307Z,-0.55
2018-12-16T04:28:21.613Z,-0.55
2018-12-16T04:33:23.694Z,-0.54
2018-12-16T04:38:25.903Z,-0.55
2018-12-16T04:43:28.021Z,-0.50
2018-12-16T04:48:30.083Z,-0.55
2018-12-16T04:53:36.919Z,-0.53
2018-12-16T04:58:36.479Z,-0.51
2018-12-16T05:03:38.582Z,-0.55
2018-12-16T05:08:40.733Z,-0.42
2018-12-16T05:13:43.100Z,-0.43
2018-12-16T05:18:45.258Z,-0.51
2018-12-16T05:23:47.326Z,-0.47
2018-12-16T05:28:49.497Z,-0.47
2018-12-16T05:33:51.654Z,-0.41
2018-12-16T05:38:53.783Z,-0.32
2018-12-16T05:43:56.049Z,-0.41
2018-12-16T05:48:58.106Z,-0.45
2018-12-16T05:54:00.166Z,-0.49
2018-12-16T05:59:02.353Z,-0.22
2018-12-16T06:04:04.750Z,-0.04
2018-12-16T06:09:07.093Z,-0.12
2018-12-16T06:14:10.256Z,-0.14
2018-12-16T06:19:12.450Z,-0.15
2018-12-16T06:24:14.497Z,-0.21
2018-12-16T06:29:16.803Z,-0.13
2018-12-16T06:34:18.905Z,-0.27
2018-12-16T06:39:21.958Z,-0.38
2018-12-16T06:44:23.994Z,-0.45
2018-12-16T06:49:26.065Z,-0.68
2018-12-16T06:54:28.225Z,-0.62
2018-12-16T06:59:30.281Z,-0.52
2018-12-16T07:04:32.386Z,-0.42
2018-12-16T07:09:34.717Z,-0.50
2018-12-16T07:14:37.030Z,-0.52
2018-12-16T07:19:39.596Z,-0.44
2018-12-16T07:24:41.649Z,-0.43
2018-12-16T07:29:43.687Z,-0.50
2018-12-16T07:34:45.742Z,-0.55
2018-12-16T07:39:48.030Z,-0.57
2018-12-16T07:44:50.098Z,-0.59
2018-12-16T07:49:52.495Z,-0.55
2018-12-16T07:54:54.606Z,-0.43
2018-12-16T07:59:56.828Z,-0.47
2018-12-16T08:04:59.054Z,-0.67
2018-12-16T08:10:01.447Z,-0.67
2018-12-16T08:15:04.322Z,-0.67
2018-12-16T08:20:07.739Z,-0.58
2018-12-16T08:25:10.025Z,-0.51
2018-12-16T08:30:12.309Z,-0.52
2018-12-16T08:35:14.397Z,-0.48
2018-12-16T08:40:16.671Z,-0.40
2018-12-16T08:45:18.919Z,-0.36
2018-12-16T08:50:21.177Z,-0.19
2018-12-16T08:55:23.457Z,-0.13
2018-12-16T09:00:25.614Z,-0.08
2018-12-16T09:05:27.677Z,0.04
2018-12-16T09:10:34.112Z,0.14
2018-12-16T09:15:34.029Z,0.22
2018-12-16T09:20:36.179Z,0.23
2018-12-16T09:25:38.431Z,0.18
2018-12-16T09:30:40.618Z,0.40
2018-12-16T09:35:42.820Z,0.47
2018-12-16T09:40:45.245Z,0.62
2018-12-16T09:45:49.544Z,0.68
2018-12-16T09:50:52.121Z,0.86
2018-12-16T09:55:54.385Z,0.86
2018-12-16T10:00:56.842Z,1.00
2018-12-16T10:05:59.164Z,0.98
2018-12-16T10:11:01.856Z,1.04
2018-12-16T10:16:04.256Z,1.94
2018-12-16T10:21:06.916Z,1.70
2018-12-16T10:26:09.150Z,1.84
2018-12-16T10:31:11.305Z,2.12
2018-12-16T10:36:13.478Z,1.72
2018-12-16T10:41:15.554Z,1.19
2018-12-16T10:46:17.777Z,1.05
2018-12-16T10:51:19.961Z,1.01
2018-12-16T10:56:22.146Z,1.36
2018-12-16T11:01:28.672Z,1.13
2018-12-16T11:06:30.958Z,1.35
2018-12-16T11:11:33.264Z,1.58
2018-12-16T11:16:35.581Z,1.94
2018-12-16T11:21:37.922Z,2.10
2018-12-16T11:26:40.946Z,1.59
2018-12-16T11:31:43.142Z,1.48
2018-12-16T11:36:45.413Z,1.39
2018-12-16T11:41:47.635Z,1.18
2018-12-16T11:46:49.854Z,1.51
2018-12-16T11:51:52.123Z,1.61
2018-12-16T11:57:11.395Z,1.94
2018-12-16T12:02:13.605Z,1.48
2018-12-16T12:07:17.770Z,1.66
2018-12-16T12:12:20.149Z,1.59
2018-12-16T12:17:22.307Z,1.55
2018-12-16T12:22:24.594Z,1.66
2018-12-16T12:27:27.052Z,1.62
2018-12-16T12:32:29.354Z,1.53
2018-12-16T12:37:31.840Z,1.49
2018-12-16T12:42:37.074Z,1.28
2018-12-16T12:47:39.245Z,1.43
2018-12-16T12:52:46.497Z,1.17
2018-12-16T12:57:48.729Z,1.14
2018-12-16T13:02:50.993Z,1.21
2018-12-16T13:07:53.086Z,1.20
2018-12-16T13:12:55.526Z,1.15
2018-12-16T13:17:57.813Z,1.17
2018-12-16T13:22:59.859Z,1.05
2018-12-16T13:28:02.162Z,0.98
2018-12-16T13:33:04.359Z,1.01
2018-12-16T13:38:06.614Z,1.11
2018-12-16T13:43:09.731Z,1.23
2018-12-16T13:48:11.882Z,1.04
2018-12-16T13:53:14.872Z,0.81
2018-12-16T13:58:17.438Z,0.79
2018-12-16T14:03:19.809Z,0.86
2018-12-16T14:08:21.990Z,0.74
2018-12-16T14:13:24.415Z,0.77
2018-12-16T14:18:26.468Z,0.77
2018-12-16T14:23:28.553Z,0.73
2018-12-16T14:28:30.594Z,0.68
2018-12-16T14:33:33.145Z,0.49
2018-12-16T14:38:35.434Z,0.48
2018-12-16T14:43:37.618Z,0.32
2018-12-16T14:48:39.687Z,0.23
2018-12-16T14:53:42.045Z,0.20
2018-12-16T14:58:44.261Z,0.04
2018-12-16T15:03:46.446Z,0.01
2018-12-16T15:09:01.716Z,-0.19
2018-12-16T15:14:05.277Z,-0.29
2018-12-16T15:19:07.453Z,-0.51
2018-12-16T15:24:09.729Z,-0.52
2018-12-16T15:29:11.817Z,-0.56
2018-12-16T15:34:13.984Z,-0.38
2018-12-16T15:39:16.054Z,-0.49
2018-12-16T15:44:20.133Z,-0.59
2018-12-16T15:49:22.221Z,-0.71
2018-12-16T15:54:24.362Z,-0.64
2018-12-16T15:59:26.630Z,-0.70
2018-12-16T16:04:28.833Z,-0.68
2018-12-16T16:09:31.003Z,-0.68
2018-12-16T16:14:33.071Z,-0.73
2018-12-16T16:19:35.381Z,-0.66
2018-12-16T16:24:37.421Z,-0.71
2018-12-16T16:29:39.726Z,-0.73
2018-12-16T16:34:41.922Z,-0.71
2018-12-16T16:39:50.862Z,-0.66
2018-12-16T16:44:53.027Z,-0.71
2018-12-16T16:49:55.089Z,-0.71
2018-12-16T16:54:57.366Z,-0.65
2018-12-16T16:59:59.544Z,-0.63
2018-12-16T17:05:01.779Z,-0.58
2018-12-16T17:10:04.991Z,-0.56
2018-12-16T17:15:07.414Z,-0.54
2018-12-16T17:20:09.733Z,-0.56
2018-12-16T17:25:11.786Z,-0.55
2018-12-16T17:30:14.046Z,-0.56
2018-12-16T17:35:16.098Z,-0.59
2018-12-16T17:40:18.189Z,-0.53
2018-12-16T17:45:20.973Z,-0.51
2018-12-16T17:50:25.154Z,-0.51
2018-12-16T17:55:27.701Z,-0.53
2018-12-16T18:00:36.796Z,-0.51
2018-12-16T18:05:39.097Z,-0.45
2018-12-16T18:10:41.322Z,-0.48
2018-12-16T18:15:44.033Z,-0.48
2018-12-16T18:20:46.557Z,-0.40
2018-12-16T18:25:49.389Z,-0.41
2018-12-16T18:30:53.379Z,-0.35
2018-12-16T18:35:55.969Z,-0.39
2018-12-16T18:40:58.546Z,-0.47
2018-12-16T18:46:00.908Z,-0.45
2018-12-16T18:51:03.629Z,-0.45
2018-12-16T18:56:05.978Z,-0.40
2018-12-16T19:01:08.099Z,-0.42
2018-12-16T19:06:10.138Z,-0.37
2018-12-16T19:11:12.343Z,-0.34
2018-12-16T19:16:14.405Z,-0.37
2018-12-16T19:21:16.581Z,-0.28
2018-12-16T19:26:18.775Z,-0.24
2018-12-16T19:31:22.903Z,-0.15
2018-12-16T19:36:25.058Z,-0.25
2018-12-16T19:41:28.110Z,-0.28
2018-12-16T19:46:30.203Z,-0.27
2018-12-16T19:51:33.127Z,-0.26
2018-12-16T19:56:36.161Z,-0.28
2018-12-16T20:01:43.330Z,-0.29
2018-12-16T20:06:47.188Z,-0.20
2018-12-16T20:11:50.052Z,-0.24
2018-12-16T20:16:52.946Z,-0.21
2018-12-16T20:21:55.138Z,-0.10
2018-12-16T20:26:58.273Z,0.03
2018-12-16T20:32:00.906Z,-0.01
2018-12-16T20:37:03.933Z,0.12
2018-12-16T20:42:06.034Z,0.26
2018-12-16T20:47:08.889Z,0.27
2018-12-16T20:52:11.217Z,0.31
2018-12-16T20:57:18.834Z,0.27
2018-12-16T21:02:18.027Z,0.24
2018-12-16T21:07:27.317Z,0.29
2018-12-16T21:12:39.006Z,0.30
2018-12-16T21:17:47.474Z,0.35
2018-12-16T21:22:50.717Z,0.36
2018-12-16T21:27:53.466Z,0.34
2018-12-16T21:32:56.681Z,0.33
2018-12-16T21:37:59.948Z,0.35
2018-12-16T21:43:03.430Z,0.28
2018-12-16T21:48:05.647Z,0.36
2018-12-16T21:53:09.122Z,0.37
2018-12-16T21:58:11.194Z,0.30
2018-12-16T22:03:13.337Z,0.22
2018-12-16T22:08:15.437Z,0.29
2018-12-16T22:13:17.649Z,0.32
2018-12-16T22:18:19.933Z,0.27
2018-12-16T22:23:22.089Z,0.02
2018-12-16T22:28:24.171Z,0.02
2018-12-16T22:33:26.213Z,0.04
2018-12-16T22:38:28.270Z,0.10
2018-12-16T22:43:32.373Z,0.21
2018-12-16T22:48:34.714Z,0.20
2018-12-16T22:53:36.892Z,0.32
2018-12-16T22:58:39.101Z,0.39
2018-12-16T23:03:41.280Z,0.37
2018-12-16T23:08:43.553Z,0.34
2018-12-16T23:13:45.898Z,0.34
2018-12-16T23:18:49.511Z,0.38
2018-12-16T23:23:51.657Z,0.37
2018-12-16T23:28:53.950Z,0.38
2018-12-16T23:33:56.098Z,0.41
2018-12-16T23:38:58.281Z,0.39
2018-12-16T23:44:00.438Z,0.39
2018-12-16T23:49:02.732Z,0.47
2018-12-16T23:54:04.773Z,0.50
2018-12-16T23:59:06.938Z,0.42
